TimeCET,TemperatureF,Dew PointF,Humidity,Sea Level PressureIn,VisibilityMPH,Wind Direction,Wind SpeedMPH,Gust SpeedMPH,PrecipitationIn,Events,Conditions,WindDirDegrees,DateUTC
12:15 AM,44.6,41.0,87,30.09,5.0,SE,4.5,-,N/A,,Unknown,140,2012-11-18 23:15:00
12:45 AM,44.6,39.2,81,30.09,5.0,SE,4.5,-,N/A,,Unknown,140,2012-11-18 23:45:00
1:15 AM,44.6,39.2,81,30.09,5.0,ESE,6.7,-,N/A,,Unknown,120,2012-11-19 00:15:00
1:45 AM,42.8,39.2,87,30.09,5.0,SE,4.5,-,N/A,,Unknown,130,2012-11-19 00:45:00
2:15 AM,41.0,39.2,93,30.09,5.0,East,4.5,-,N/A,,Unknown,80,2012-11-19 01:15:00
2:45 AM,41.0,39.2,93,30.09,4.3,ENE,4.5,-,N/A,,Unknown,60,2012-11-19 01:45:00
3:15 AM,39.2,39.2,100,30.09,3.7,East,4.5,-,N/A,,Unknown,80,2012-11-19 02:15:00
3:45 AM,41.0,39.2,93,30.09,4.3,East,4.5,-,N/A,,Unknown,90,2012-11-19 02:45:00
4:15 AM,41.0,39.2,93,30.09,3.7,ESE,4.5,-,N/A,,Unknown,110,2012-11-19 03:15:00
4:45 AM,41.0,39.2,93,30.12,3.7,East,4.5,-,N/A,,Unknown,100,2012-11-19 03:45:00
5:15 AM,41.0,39.2,93,30.12,3.7,East,4.5,-,N/A,,Unknown,90,2012-11-19 04:15:00
5:27 AM,41.0,39.2,93,30.12,3.1,East,2.2,-,N/A,,Mostly Cloudy,100,2012-11-19 04:27:00
5:45 AM,-9999,-9999,N/A,-9999,3.1,ESE,6.7,-,N/A,,Mist,110,2012-11-19 04:45:00
6:15 AM,41.0,39.2,93,30.12,3.1,ESE,4.5,-,N/A,,Mostly Cloudy,110,2012-11-19 05:15:00
6:45 AM,41.0,39.2,93,30.12,2.8,ESE,2.2,-,N/A,,Mostly Cloudy,110,2012-11-19 05:45:00
7:15 AM,41.0,41.0,100,30.12,2.8,Calm,Calm,-,N/A,,Mostly Cloudy,0,2012-11-19 06:15:00
7:45 AM,41.0,39.2,93,30.12,2.8,East,2.2,-,N/A,,Mostly Cloudy,100,2012-11-19 06:45:00
8:15 AM,42.8,39.2,87,30.15,2.8,East,2.2,-,N/A,,Mostly Cloudy,100,2012-11-19 07:15:00
8:45 AM,42.8,41.0,93,30.15,2.8,East,2.2,-,N/A,,Mostly Cloudy,90,2012-11-19 07:45:00
9:02 AM,44.6,41.0,87,30.15,3.1,East,2.2,-,N/A,,Mostly Cloudy,100,2012-11-19 08:02:00
9:15 AM,44.6,41.0,87,30.15,3.1,East,2.2,-,N/A,,Mostly Cloudy,80,2012-11-19 08:15:00
9:45 AM,46.4,41.0,81,30.15,3.7,East,2.2,-,N/A,,Unknown,90,2012-11-19 08:45:00
10:15 AM,48.2,41.0,76,30.15,3.7,East,2.2,-,N/A,,Unknown,90,2012-11-19 09:15:00
10:45 AM,48.2,41.0,76,30.15,3.7,East,2.2,-,N/A,,Unknown,80,2012-11-19 09:45:00
11:45 AM,-9999,-9999,N/A,-9999,3.1,ENE,4.5,-,N/A,Fog,Mist,60,2012-11-19 10:45:00
12:15 PM,50.0,41.0,71,30.12,4.3,East,2.2,-,N/A,,Unknown,100,2012-11-19 11:15:00
12:45 PM,50.0,41.0,71,30.12,5.0,East,4.5,-,N/A,,Unknown,90,2012-11-19 11:45:00
1:15 PM,51.8,41.0,67,30.12,5.0,East,4.5,-,N/A,,Unknown,90,2012-11-19 12:15:00
1:45 PM,51.8,42.8,71,30.12,5.6,East,4.5,-,N/A,,Unknown,90,2012-11-19 12:45:00
2:15 PM,51.8,41.0,67,30.12,6.2,East,4.5,-,N/A,,Mostly Cloudy,80,2012-11-19 13:15:00
2:45 PM,-9999,-9999,N/A,-9999,3.1,NE,4.5,-,N/A,Fog,Clear,50,2012-11-19 13:45:00
3:15 PM,51.8,42.8,71,30.12,5.6,NNE,6.7,-,N/A,,Unknown,30,2012-11-19 14:15:00
3:45 PM,48.2,42.8,82,30.12,5.0,NE,6.7,-,N/A,,Unknown,40,2012-11-19 14:45:00
4:15 PM,46.4,42.8,87,30.12,4.3,NE,4.5,-,N/A,,Unknown,40,2012-11-19 15:15:00
4:45 PM,46.4,42.8,87,30.12,3.7,NE,4.5,-,N/A,,Unknown,40,2012-11-19 15:45:00
5:15 PM,42.8,42.8,100,30.12,3.7,North,4.5,-,N/A,,Unknown,10,2012-11-19 16:15:00
5:45 PM,-9999,-9999,N/A,-9999,3.1,NE,4.5,-,N/A,Fog,Fog,50,2012-11-19 16:45:00
6:15 PM,44.6,41.0,87,30.15,3.7,North,2.2,-,N/A,,Unknown,360,2012-11-19 17:15:00
6:45 PM,41.0,39.2,93,30.15,3.7,North,2.2,-,N/A,,Unknown,360,2012-11-19 17:45:00
7:02 PM,41.0,41.0,100,30.15,3.1,North,2.2,-,N/A,,Clear,350,2012-11-19 18:02:00
7:31 PM,39.2,39.2,100,30.15,1.9,North,2.2,-,N/A,,Clear,10,2012-11-19 18:31:00
7:45 PM,41.0,41.0,100,30.15,1.9,North,2.2,-,N/A,,Clear,360,2012-11-19 18:45:00
8:15 PM,41.0,41.0,100,30.15,1.9,WNW,2.2,-,N/A,,Clear,300,2012-11-19 19:15:00
8:45 PM,-9999,-9999,N/A,-9999,1.9,Variable,4.5,-,N/A,Fog,Light Fog,0,2012-11-19 19:45:00
9:15 PM,37.4,37.4,100,30.15,1.6,North,6.7,-,N/A,,Clear,360,2012-11-19 20:15:00
9:45 PM,41.0,41.0,100,30.15,1.6,North,6.7,-,N/A,,Clear,10,2012-11-19 20:45:00
10:15 PM,41.0,41.0,100,30.15,1.6,NNE,4.5,-,N/A,,Clear,30,2012-11-19 21:15:00
10:34 PM,41.0,41.0,100,30.15,0.9,NNE,4.5,-,N/A,,Clear,30,2012-11-19 21:34:00
10:45 PM,39.2,39.2,100,30.15,0.9,NNE,4.5,-,N/A,,Clear,30,2012-11-19 21:45:00
11:04 PM,37.4,37.4,100,30.15,0.6,NNE,4.5,-,N/A,,Clear,30,2012-11-19 22:04:00
11:15 PM,37.4,37.4,100,30.15,0.6,NE,4.5,-,N/A,,Clear,40,2012-11-19 22:15:00
11:45 PM,-9999,-9999,N/A,-9999,1.9,North,-9999.0,-,N/A,Fog,Fog,0,2012-11-19 22:45:00